createdAt,value
2019-03-05T17:24:22.976Z,99848.95
2019-03-05T17:29:25.018Z,99857.47
2019-03-05T17:34:27.008Z,99867.77
2019-03-05T17:39:29.824Z,99875.23
2019-03-05T17:44:31.815Z,99895.57
2019-03-05T17:49:33.819Z,99897.05
2019-03-05T17:54:36.199Z,99902.48
2019-03-05T17:59:38.443Z,99910.02
2019-03-05T18:04:40.523Z,99903.63
2019-03-05T18:09:42.591Z,99907.77
2019-03-05T18:14:44.645Z,99922.77
2019-03-05T18:19:46.711Z,99940.58
2019-03-05T18:24:48.734Z,99946.17
2019-03-05T18:29:51.126Z,99950.22
2019-03-05T18:34:53.248Z,99944.50
2019-03-05T18:39:55.288Z,99946.50
2019-03-05T18:44:57.480Z,99961.19
2019-03-05T18:49:59.525Z,99967.44
2019-03-05T18:55:01.879Z,99972.34
2019-03-05T19:00:05.095Z,99979.47
2019-03-05T19:05:08.044Z,99984.14
2019-03-05T19:10:12.457Z,99975.06
2019-03-05T19:15:17.143Z,99994.06
2019-03-05T19:20:20.820Z,100009.15
2019-03-05T19:25:25.056Z,100021.25
2019-03-05T19:30:29.443Z,100027.28
2019-03-05T19:35:31.725Z,100034.94
2019-03-05T19:40:34.234Z,100037.49
2019-03-05T19:45:36.264Z,100047.73
2019-03-05T19:50:38.381Z,100043.32
2019-03-05T19:55:40.426Z,100052.97
2019-03-05T20:00:51.685Z,100055.63
2019-03-05T20:05:54.158Z,100063.84
2019-03-05T20:10:56.569Z,100066.67
2019-03-05T20:16:08.073Z,100066.41
2019-03-05T20:21:10.629Z,100078.02
2019-03-05T20:26:13.098Z,100075.13
2019-03-05T20:31:15.159Z,100080.26
2019-03-05T20:36:17.649Z,100083.62
2019-03-05T20:41:20.070Z,100091.33
2019-03-05T20:46:24.700Z,100090.11
2019-03-05T20:51:26.737Z,100084.55
2019-03-05T20:56:29.265Z,100084.83
2019-03-05T21:01:31.525Z,100095.11
2019-03-05T21:06:33.619Z,100090.75
2019-03-05T21:11:35.823Z,100088.11
2019-03-05T21:16:37.890Z,100087.21
2019-03-05T21:21:40.000Z,100087.78
2019-03-05T21:26:42.176Z,100094.28
2019-03-05T21:31:44.247Z,100089.09
2019-03-05T21:36:46.385Z,100078.36
2019-03-05T21:41:48.549Z,100084.11
2019-03-05T21:46:50.634Z,100079.53
2019-03-05T21:51:53.052Z,100088.86
2019-03-05T21:56:56.861Z,100087.05
2019-03-05T22:01:59.123Z,100091.87
2019-03-05T22:07:01.311Z,100092.49
2019-03-05T22:12:04.335Z,100088.55
2019-03-05T22:17:06.706Z,100098.34
2019-03-05T22:22:08.957Z,100104.26
2019-03-05T22:27:11.025Z,100102.14
2019-03-05T22:32:13.425Z,100098.02
2019-03-05T22:37:15.481Z,100101.91
2019-03-05T22:42:17.537Z,100099.31
2019-03-05T22:47:19.629Z,100100.76
2019-03-05T22:52:22.005Z,100091.36
2019-03-05T22:57:24.042Z,100094.92
2019-03-05T23:02:26.287Z,100095.25
2019-03-05T23:07:28.379Z,100103.11
2019-03-05T23:12:30.540Z,100113.27
2019-03-05T23:17:33.002Z,100115.63
2019-03-05T23:22:36.766Z,100106.31
2019-03-05T23:27:38.879Z,100101.25
2019-03-05T23:32:40.994Z,100083.91
2019-03-05T23:37:43.381Z,100076.30
2019-03-05T23:42:45.582Z,100091.37
2019-03-05T23:47:47.651Z,100092.94
2019-03-05T23:52:49.782Z,100092.33
2019-03-05T23:57:51.827Z,100084.16
